sensor_id;sensor_type;location;lat;lon;timestamp;temperature;humidity
831;DHT22;397;50.564;7.272;2023-04-03T00:00:46;5.70;99.90
831;DHT22;397;50.564;7.272;2023-04-03T00:03:16;5.70;99.90
831;DHT22;397;50.564;7.272;2023-04-03T00:05:44;5.60;99.90
831;DHT22;397;50.564;7.272;2023-04-03T00:08:12;5.50;99.90
831;DHT22;397;50.564;7.272;2023-04-03T00:10:40;5.50;99.90
831;DHT22;397;50.564;7.272;2023-04-03T00:13:08;5.50;99.90
831;DHT22;397;50.564;7.272;2023-04-03T00:15:37;5.50;99.90
831;DHT22;397;50.564;7.272;2023-04-03T00:18:05;5.50;99.90
831;DHT22;397;50.564;7.272;2023-04-03T00:20:33;5.60;99.90
831;DHT22;397;50.564;7.272;2023-04-03T00:23:02;5.60;99.90
831;DHT22;397;50.564;7.272;2023-04-03T00:25:29;5.40;99.90
831;DHT22;397;50.564;7.272;2023-04-03T00:27:57;5.60;99.90
831;DHT22;397;50.564;7.272;2023-04-03T00:30:25;5.50;99.90
831;DHT22;397;50.564;7.272;2023-04-03T00:32:53;5.50;99.90
831;DHT22;397;50.564;7.272;2023-04-03T00:35:21;5.50;99.90
831;DHT22;397;50.564;7.272;2023-04-03T00:37:51;5.60;99.90
831;DHT22;397;50.564;7.272;2023-04-03T00:40:21;5.70;99.90
831;DHT22;397;50.564;7.272;2023-04-03T00:43:01;5.60;99.90
831;DHT22;397;50.564;7.272;2023-04-03T00:45:36;5.70;99.90
831;DHT22;397;50.564;7.272;2023-04-03T00:48:06;5.70;99.90
831;DHT22;397;50.564;7.272;2023-04-03T00:50:37;5.70;99.90
831;DHT22;397;50.564;7.272;2023-04-03T00:53:07;5.70;99.90
831;DHT22;397;50.564;7.272;2023-04-03T00:55:36;5.60;99.90
831;DHT22;397;50.564;7.272;2023-04-03T00:58:06;5.60;99.90
831;DHT22;397;50.564;7.272;2023-04-03T01:00:35;5.70;99.90
831;DHT22;397;50.564;7.272;2023-04-03T01:03:03;5.70;99.90
831;DHT22;397;50.564;7.272;2023-04-03T01:05:30;5.70;99.90
831;DHT22;397;50.564;7.272;2023-04-03T01:07:59;5.80;99.90
831;DHT22;397;50.564;7.272;2023-04-03T01:10:27;5.80;99.90
831;DHT22;397;50.564;7.272;2023-04-03T01:12:54;5.70;99.90
831;DHT22;397;50.564;7.272;2023-04-03T01:15:24;5.70;99.90
831;DHT22;397;50.564;7.272;2023-04-03T01:17:54;5.80;99.90
831;DHT22;397;50.564;7.272;2023-04-03T01:25:42;5.80;99.90
831;DHT22;397;50.564;7.272;2023-04-03T01:28:21;5.80;99.90
831;DHT22;397;50.564;7.272;2023-04-03T01:31:13;5.80;99.90
831;DHT22;397;50.564;7.272;2023-04-03T01:33:39;5.70;99.90
831;DHT22;397;50.564;7.272;2023-04-03T01:36:07;5.70;99.90
831;DHT22;397;50.564;7.272;2023-04-03T01:38:35;5.80;99.90
831;DHT22;397;50.564;7.272;2023-04-03T01:41:02;5.90;99.90
831;DHT22;397;50.564;7.272;2023-04-03T01:43:30;5.90;99.90
831;DHT22;397;50.564;7.272;2023-04-03T01:45:57;5.80;99.90
831;DHT22;397;50.564;7.272;2023-04-03T01:48:25;5.60;99.90
831;DHT22;397;50.564;7.272;2023-04-03T01:50:53;5.50;99.90
831;DHT22;397;50.564;7.272;2023-04-03T01:53:20;5.50;99.90
831;DHT22;397;50.564;7.272;2023-04-03T01:55:48;5.50;99.90
831;DHT22;397;50.564;7.272;2023-04-03T01:58:16;5.60;99.90
831;DHT22;397;50.564;7.272;2023-04-03T02:00:44;5.70;99.90
831;DHT22;397;50.564;7.272;2023-04-03T02:03:12;5.50;99.90
831;DHT22;397;50.564;7.272;2023-04-03T02:05:39;5.50;99.90
831;DHT22;397;50.564;7.272;2023-04-03T02:08:07;5.60;99.90
831;DHT22;397;50.564;7.272;2023-04-03T02:10:34;5.60;99.90
831;DHT22;397;50.564;7.272;2023-04-03T02:13:02;5.70;99.90
831;DHT22;397;50.564;7.272;2023-04-03T02:15:29;5.60;99.90
831;DHT22;397;50.564;7.272;2023-04-03T02:17:57;5.70;99.90
831;DHT22;397;50.564;7.272;2023-04-03T02:20:25;5.70;99.90
831;DHT22;397;50.564;7.272;2023-04-03T02:22:52;5.70;99.90
831;DHT22;397;50.564;7.272;2023-04-03T02:25:20;5.70;99.90
831;DHT22;397;50.564;7.272;2023-04-03T02:27:47;5.60;99.90
831;DHT22;397;50.564;7.272;2023-04-03T02:30:15;5.50;99.90
831;DHT22;397;50.564;7.272;2023-04-03T02:32:43;5.60;99.90
831;DHT22;397;50.564;7.272;2023-04-03T02:35:11;5.60;99.90
831;DHT22;397;50.564;7.272;2023-04-03T02:37:39;5.50;99.90
831;DHT22;397;50.564;7.272;2023-04-03T02:40:07;5.40;99.90
831;DHT22;397;50.564;7.272;2023-04-03T02:42:35;5.60;99.90
831;DHT22;397;50.564;7.272;2023-04-03T02:45:02;5.40;99.90
831;DHT22;397;50.564;7.272;2023-04-03T02:47:30;5.40;99.90
831;DHT22;397;50.564;7.272;2023-04-03T02:49:58;5.40;99.90
831;DHT22;397;50.564;7.272;2023-04-03T02:52:25;5.30;99.90
831;DHT22;397;50.564;7.272;2023-04-03T02:58:15;5.40;99.90
831;DHT22;397;50.564;7.272;2023-04-03T03:00:43;5.30;99.90
831;DHT22;397;50.564;7.272;2023-04-03T03:03:10;5.30;99.90
831;DHT22;397;50.564;7.272;2023-04-03T03:05:39;5.40;99.90
831;DHT22;397;50.564;7.272;2023-04-03T03:08:07;5.40;99.90
831;DHT22;397;50.564;7.272;2023-04-03T03:10:34;5.50;99.90
831;DHT22;397;50.564;7.272;2023-04-03T03:13:02;5.40;99.90
831;DHT22;397;50.564;7.272;2023-04-03T03:15:29;5.40;99.90
831;DHT22;397;50.564;7.272;2023-04-03T03:17:57;5.40;99.90
831;DHT22;397;50.564;7.272;2023-04-03T03:20:24;5.30;99.90
831;DHT22;397;50.564;7.272;2023-04-03T03:22:52;5.30;99.90
831;DHT22;397;50.564;7.272;2023-04-03T03:25:19;5.30;99.90
831;DHT22;397;50.564;7.272;2023-04-03T03:27:47;5.20;99.90
831;DHT22;397;50.564;7.272;2023-04-03T03:30:14;5.20;99.90
831;DHT22;397;50.564;7.272;2023-04-03T03:32:42;5.20;99.90
831;DHT22;397;50.564;7.272;2023-04-03T03:35:09;5.20;99.90
831;DHT22;397;50.564;7.272;2023-04-03T03:37:37;5.10;99.90
831;DHT22;397;50.564;7.272;2023-04-03T03:40:05;5.10;99.90
831;DHT22;397;50.564;7.272;2023-04-03T03:42:32;5.20;99.90
831;DHT22;397;50.564;7.272;2023-04-03T03:45:00;5.10;99.90
831;DHT22;397;50.564;7.272;2023-04-03T03:47:27;5.10;99.90
831;DHT22;397;50.564;7.272;2023-04-03T03:49:55;5.10;99.90
831;DHT22;397;50.564;7.272;2023-04-03T03:52:22;4.90;99.90
831;DHT22;397;50.564;7.272;2023-04-03T03:54:50;5.00;99.90
831;DHT22;397;50.564;7.272;2023-04-03T03:57:17;4.80;99.90
831;DHT22;397;50.564;7.272;2023-04-03T03:59:45;4.80;99.90
831;DHT22;397;50.564;7.272;2023-04-03T04:02:13;4.80;99.90
831;DHT22;397;50.564;7.272;2023-04-03T04:04:41;4.80;99.90
831;DHT22;397;50.564;7.272;2023-04-03T04:07:08;4.80;99.90
831;DHT22;397;50.564;7.272;2023-04-03T04:09:36;4.70;99.90
831;DHT22;397;50.564;7.272;2023-04-03T04:12:04;4.80;99.90
831;DHT22;397;50.564;7.272;2023-04-03T04:14:31;4.70;99.90
831;DHT22;397;50.564;7.272;2023-04-03T04:16:59;4.80;99.90
831;DHT22;397;50.564;7.272;2023-04-03T04:19:28;4.80;99.90
831;DHT22;397;50.564;7.272;2023-04-03T04:21:56;4.70;99.90
831;DHT22;397;50.564;7.272;2023-04-03T04:24:24;4.50;99.90
831;DHT22;397;50.564;7.272;2023-04-03T04:26:51;4.50;99.90
831;DHT22;397;50.564;7.272;2023-04-03T04:29:18;4.30;99.90
831;DHT22;397;50.564;7.272;2023-04-03T04:31:46;4.40;99.90
831;DHT22;397;50.564;7.272;2023-04-03T04:34:14;4.40;99.90
831;DHT22;397;50.564;7.272;2023-04-03T04:36:42;4.30;99.90
831;DHT22;397;50.564;7.272;2023-04-03T04:39:09;4.20;99.90
831;DHT22;397;50.564;7.272;2023-04-03T04:41:37;4.10;99.90
831;DHT22;397;50.564;7.272;2023-04-03T04:44:04;4.10;99.90
831;DHT22;397;50.564;7.272;2023-04-03T04:46:32;4.10;99.90
831;DHT22;397;50.564;7.272;2023-04-03T04:48:59;4.00;99.90
831;DHT22;397;50.564;7.272;2023-04-03T04:51:27;4.00;99.90
831;DHT22;397;50.564;7.272;2023-04-03T04:53:54;3.90;99.90
831;DHT22;397;50.564;7.272;2023-04-03T04:56:22;4.00;99.90
831;DHT22;397;50.564;7.272;2023-04-03T04:58:49;3.90;99.90
831;DHT22;397;50.564;7.272;2023-04-03T05:01:17;3.90;99.90
831;DHT22;397;50.564;7.272;2023-04-03T05:03:45;3.80;99.90
831;DHT22;397;50.564;7.272;2023-04-03T05:06:14;3.70;99.90
831;DHT22;397;50.564;7.272;2023-04-03T05:08:41;3.70;99.90
831;DHT22;397;50.564;7.272;2023-04-03T05:11:09;3.90;99.90
831;DHT22;397;50.564;7.272;2023-04-03T05:13:36;3.70;99.90
831;DHT22;397;50.564;7.272;2023-04-03T05:18:52;3.80;99.90
831;DHT22;397;50.564;7.272;2023-04-03T05:21:20;3.80;99.90
831;DHT22;397;50.564;7.272;2023-04-03T05:23:49;3.70;99.90
831;DHT22;397;50.564;7.272;2023-04-03T05:26:16;3.50;99.90
831;DHT22;397;50.564;7.272;2023-04-03T05:28:44;3.60;99.90
831;DHT22;397;50.564;7.272;2023-04-03T05:31:13;3.70;99.90
831;DHT22;397;50.564;7.272;2023-04-03T05:33:40;3.80;99.90
831;DHT22;397;50.564;7.272;2023-04-03T05:36:08;3.80;99.90
831;DHT22;397;50.564;7.272;2023-04-03T05:38:36;3.80;99.90
831;DHT22;397;50.564;7.272;2023-04-03T05:41:03;3.80;99.90
831;DHT22;397;50.564;7.272;2023-04-03T05:43:31;3.70;99.90
831;DHT22;397;50.564;7.272;2023-04-03T05:46:00;3.60;99.90
831;DHT22;397;50.564;7.272;2023-04-03T05:48:28;3.60;99.90
831;DHT22;397;50.564;7.272;2023-04-03T05:50:55;3.70;99.90
831;DHT22;397;50.564;7.272;2023-04-03T05:53:27;3.60;99.90
831;DHT22;397;50.564;7.272;2023-04-03T05:55:54;3.90;99.90
831;DHT22;397;50.564;7.272;2023-04-03T05:58:21;4.60;99.90
831;DHT22;397;50.564;7.272;2023-04-03T06:00:49;5.00;99.90
831;DHT22;397;50.564;7.272;2023-04-03T06:03:16;5.50;99.90
831;DHT22;397;50.564;7.272;2023-04-03T06:05:44;6.10;99.90
831;DHT22;397;50.564;7.272;2023-04-03T06:08:12;6.40;99.90
831;DHT22;397;50.564;7.272;2023-04-03T06:10:40;6.80;99.90
831;DHT22;397;50.564;7.272;2023-04-03T06:13:08;6.70;99.90
831;DHT22;397;50.564;7.272;2023-04-03T06:15:36;6.80;99.90
831;DHT22;397;50.564;7.272;2023-04-03T06:18:05;6.80;99.90
831;DHT22;397;50.564;7.272;2023-04-03T06:20:33;7.20;99.90
831;DHT22;397;50.564;7.272;2023-04-03T06:23:00;7.50;99.90
831;DHT22;397;50.564;7.272;2023-04-03T06:25:28;7.60;99.90
831;DHT22;397;50.564;7.272;2023-04-03T06:27:56;7.00;99.90
831;DHT22;397;50.564;7.272;2023-04-03T06:30:23;6.80;99.90
831;DHT22;397;50.564;7.272;2023-04-03T06:32:51;6.90;99.90
831;DHT22;397;50.564;7.272;2023-04-03T06:35:18;7.40;99.90
831;DHT22;397;50.564;7.272;2023-04-03T06:37:47;7.10;99.90
831;DHT22;397;50.564;7.272;2023-04-03T06:40:21;6.90;99.90
831;DHT22;397;50.564;7.272;2023-04-03T06:42:47;6.50;99.90
831;DHT22;397;50.564;7.272;2023-04-03T06:45:15;6.70;99.90
831;DHT22;397;50.564;7.272;2023-04-03T06:47:43;6.90;99.90
831;DHT22;397;50.564;7.272;2023-04-03T06:50:12;6.60;99.90
831;DHT22;397;50.564;7.272;2023-04-03T06:52:41;7.20;99.90
831;DHT22;397;50.564;7.272;2023-04-03T06:55:09;7.10;99.90
831;DHT22;397;50.564;7.272;2023-04-03T06:57:37;6.70;99.90
831;DHT22;397;50.564;7.272;2023-04-03T07:00:05;6.00;99.90
831;DHT22;397;50.564;7.272;2023-04-03T07:02:33;6.70;99.90
831;DHT22;397;50.564;7.272;2023-04-03T07:05:01;6.80;99.90
831;DHT22;397;50.564;7.272;2023-04-03T07:07:28;6.90;99.90
831;DHT22;397;50.564;7.272;2023-04-03T07:09:56;7.10;99.90
831;DHT22;397;50.564;7.272;2023-04-03T07:12:23;7.10;99.90
831;DHT22;397;50.564;7.272;2023-04-03T07:14:51;7.60;99.90
831;DHT22;397;50.564;7.272;2023-04-03T07:17:19;7.80;99.90
831;DHT22;397;50.564;7.272;2023-04-03T07:19:46;7.70;99.90
831;DHT22;397;50.564;7.272;2023-04-03T07:22:14;7.60;99.90
831;DHT22;397;50.564;7.272;2023-04-03T07:24:42;7.30;99.90
831;DHT22;397;50.564;7.272;2023-04-03T07:27:09;6.80;99.90
831;DHT22;397;50.564;7.272;2023-04-03T07:29:39;6.30;99.90
831;DHT22;397;50.564;7.272;2023-04-03T07:32:06;6.80;99.90
831;DHT22;397;50.564;7.272;2023-04-03T07:34:34;6.60;99.90
831;DHT22;397;50.564;7.272;2023-04-03T07:37:02;6.30;99.90
831;DHT22;397;50.564;7.272;2023-04-03T07:39:29;6.60;99.90
831;DHT22;397;50.564;7.272;2023-04-03T07:41:57;6.60;99.90
831;DHT22;397;50.564;7.272;2023-04-03T07:44:25;7.00;99.90
831;DHT22;397;50.564;7.272;2023-04-03T07:46:52;6.40;99.90
831;DHT22;397;50.564;7.272;2023-04-03T07:49:22;6.70;99.90
831;DHT22;397;50.564;7.272;2023-04-03T07:51:52;6.70;99.90
831;DHT22;397;50.564;7.272;2023-04-03T07:54:20;6.20;99.90
831;DHT22;397;50.564;7.272;2023-04-03T07:56:48;6.50;99.90
831;DHT22;397;50.564;7.272;2023-04-03T07:59:15;6.80;99.90
831;DHT22;397;50.564;7.272;2023-04-03T08:01:43;7.30;99.90
831;DHT22;397;50.564;7.272;2023-04-03T08:04:10;6.80;99.90
831;DHT22;397;50.564;7.272;2023-04-03T08:06:38;6.90;99.90
831;DHT22;397;50.564;7.272;2023-04-03T08:09:05;6.80;99.90
831;DHT22;397;50.564;7.272;2023-04-03T08:11:33;7.30;99.90
831;DHT22;397;50.564;7.272;2023-04-03T08:14:00;6.70;99.90
831;DHT22;397;50.564;7.272;2023-04-03T08:16:28;6.50;99.90
831;DHT22;397;50.564;7.272;2023-04-03T08:18:56;6.70;99.90
831;DHT22;397;50.564;7.272;2023-04-03T08:21:23;7.10;99.90
831;DHT22;397;50.564;7.272;2023-04-03T08:23:51;7.00;99.90
831;DHT22;397;50.564;7.272;2023-04-03T08:26:20;7.40;99.90
831;DHT22;397;50.564;7.272;2023-04-03T08:28:49;7.10;99.90
831;DHT22;397;50.564;7.272;2023-04-03T08:31:18;7.60;99.90
831;DHT22;397;50.564;7.272;2023-04-03T08:33:46;6.90;99.90
831;DHT22;397;50.564;7.272;2023-04-03T08:36:24;7.30;99.90
831;DHT22;397;50.564;7.272;2023-04-03T08:38:53;7.10;99.90
831;DHT22;397;50.564;7.272;2023-04-03T08:41:35;7.30;99.90
831;DHT22;397;50.564;7.272;2023-04-03T08:44:14;7.40;99.90
831;DHT22;397;50.564;7.272;2023-04-03T08:50:02;7.10;99.90
831;DHT22;397;50.564;7.272;2023-04-03T08:52:35;7.40;99.90
831;DHT22;397;50.564;7.272;2023-04-03T08:55:05;7.60;99.90
831;DHT22;397;50.564;7.272;2023-04-03T08:57:36;7.20;99.90
831;DHT22;397;50.564;7.272;2023-04-03T09:00:09;7.50;99.90
831;DHT22;397;50.564;7.272;2023-04-03T09:02:43;7.40;99.90
831;DHT22;397;50.564;7.272;2023-04-03T09:05:19;7.50;99.90
831;DHT22;397;50.564;7.272;2023-04-03T09:08:04;7.40;99.90
831;DHT22;397;50.564;7.272;2023-04-03T09:10:32;6.80;99.90
831;DHT22;397;50.564;7.272;2023-04-03T09:15:36;7.10;99.90
831;DHT22;397;50.564;7.272;2023-04-03T09:18:19;7.10;99.90
831;DHT22;397;50.564;7.272;2023-04-03T09:23:41;7.50;99.90
831;DHT22;397;50.564;7.272;2023-04-03T09:26:16;7.70;99.90
831;DHT22;397;50.564;7.272;2023-04-03T09:28:44;7.80;99.90
831;DHT22;397;50.564;7.272;2023-04-03T09:31:26;7.60;99.90
831;DHT22;397;50.564;7.272;2023-04-03T09:33:59;7.50;99.90
831;DHT22;397;50.564;7.272;2023-04-03T09:36:52;7.80;99.90
831;DHT22;397;50.564;7.272;2023-04-03T09:39:22;8.10;99.90
831;DHT22;397;50.564;7.272;2023-04-03T09:42:03;7.70;99.90
831;DHT22;397;50.564;7.272;2023-04-03T09:44:34;7.60;99.90
831;DHT22;397;50.564;7.272;2023-04-03T09:47:37;7.20;99.90
831;DHT22;397;50.564;7.272;2023-04-03T09:49:39;7.10;99.90
831;DHT22;397;50.564;7.272;2023-04-03T09:52:18;7.60;99.90
831;DHT22;397;50.564;7.272;2023-04-03T09:54:37;7.70;99.90
831;DHT22;397;50.564;7.272;2023-04-03T09:57:12;8.20;99.90
831;DHT22;397;50.564;7.272;2023-04-03T09:59:56;8.30;99.90
831;DHT22;397;50.564;7.272;2023-04-03T10:02:40;8.40;99.90
831;DHT22;397;50.564;7.272;2023-04-03T10:10:37;8.30;97.70
831;DHT22;397;50.564;7.272;2023-04-03T10:13:15;8.20;94.40
831;DHT22;397;50.564;7.272;2023-04-03T10:15:48;8.00;93.10
831;DHT22;397;50.564;7.272;2023-04-03T10:18:40;7.90;94.80
831;DHT22;397;50.564;7.272;2023-04-03T10:21:19;8.30;94.80
831;DHT22;397;50.564;7.272;2023-04-03T10:23:55;8.50;94.10
831;DHT22;397;50.564;7.272;2023-04-03T10:26:29;8.20;91.60
831;DHT22;397;50.564;7.272;2023-04-03T10:29:09;8.00;91.70
831;DHT22;397;50.564;7.272;2023-04-03T10:34:29;8.40;91.70
831;DHT22;397;50.564;7.272;2023-04-03T10:42:34;8.40;90.00
831;DHT22;397;50.564;7.272;2023-04-03T10:45:19;8.60;91.40
831;DHT22;397;50.564;7.272;2023-04-03T10:56:30;8.20;87.60
831;DHT22;397;50.564;7.272;2023-04-03T11:01:34;8.40;85.20
831;DHT22;397;50.564;7.272;2023-04-03T11:04:05;8.50;82.80
831;DHT22;397;50.564;7.272;2023-04-03T11:06:45;8.60;79.30
831;DHT22;397;50.564;7.272;2023-04-03T11:09:27;8.50;77.50
831;DHT22;397;50.564;7.272;2023-04-03T11:12:02;8.50;76.20
831;DHT22;397;50.564;7.272;2023-04-03T11:14:32;8.60;80.70
831;DHT22;397;50.564;7.272;2023-04-03T11:22:32;8.70;70.80
831;DHT22;397;50.564;7.272;2023-04-03T11:27:49;8.70;70.90
831;DHT22;397;50.564;7.272;2023-04-03T11:34:23;8.80;68.10
831;DHT22;397;50.564;7.272;2023-04-03T11:36:30;8.80;66.60
831;DHT22;397;50.564;7.272;2023-04-03T11:38:51;8.80;64.00
831;DHT22;397;50.564;7.272;2023-04-03T11:41:30;8.70;66.10
831;DHT22;397;50.564;7.272;2023-04-03T11:44:01;8.70;70.10
831;DHT22;397;50.564;7.272;2023-04-03T11:46:54;8.60;67.30
831;DHT22;397;50.564;7.272;2023-04-03T11:50:00;8.50;68.70
831;DHT22;397;50.564;7.272;2023-04-03T12:00:48;8.60;63.30
831;DHT22;397;50.564;7.272;2023-04-03T12:03:31;8.50;59.40
831;DHT22;397;50.564;7.272;2023-04-03T12:24:36;8.40;64.40
831;DHT22;397;50.564;7.272;2023-04-03T12:27:33;8.00;61.00
831;DHT22;397;50.564;7.272;2023-04-03T12:30:12;8.20;65.80
831;DHT22;397;50.564;7.272;2023-04-03T12:33:05;8.00;61.00
831;DHT22;397;50.564;7.272;2023-04-03T12:35:51;8.20;63.20
831;DHT22;397;50.564;7.272;2023-04-03T12:41:17;8.60;64.70
831;DHT22;397;50.564;7.272;2023-04-03T12:46:46;8.40;60.80
831;DHT22;397;50.564;7.272;2023-04-03T12:51:47;8.50;60.80
831;DHT22;397;50.564;7.272;2023-04-03T12:54:18;8.50;63.30
831;DHT22;397;50.564;7.272;2023-04-03T12:56:46;8.30;64.30
831;DHT22;397;50.564;7.272;2023-04-03T12:59:21;8.20;66.90
831;DHT22;397;50.564;7.272;2023-04-03T13:02:00;8.30;68.20
831;DHT22;397;50.564;7.272;2023-04-03T13:04:29;8.40;69.30
831;DHT22;397;50.564;7.272;2023-04-03T13:06:58;8.70;68.00
831;DHT22;397;50.564;7.272;2023-04-03T13:09:30;8.80;67.20
831;DHT22;397;50.564;7.272;2023-04-03T13:12:10;8.70;67.40
831;DHT22;397;50.564;7.272;2023-04-03T13:14:29;8.50;68.80
831;DHT22;397;50.564;7.272;2023-04-03T13:17:14;8.20;69.30
831;DHT22;397;50.564;7.272;2023-04-03T13:19:43;8.30;67.60
831;DHT22;397;50.564;7.272;2023-04-03T13:22:30;8.40;67.90
831;DHT22;397;50.564;7.272;2023-04-03T13:25:00;8.50;68.30
831;DHT22;397;50.564;7.272;2023-04-03T13:27:30;8.30;66.10
831;DHT22;397;50.564;7.272;2023-04-03T13:30:00;8.50;66.30
831;DHT22;397;50.564;7.272;2023-04-03T13:32:30;8.40;63.40
831;DHT22;397;50.564;7.272;2023-04-03T13:34:58;8.30;64.00
831;DHT22;397;50.564;7.272;2023-04-03T13:37:31;8.30;64.50
831;DHT22;397;50.564;7.272;2023-04-03T13:40:11;8.60;66.50
831;DHT22;397;50.564;7.272;2023-04-03T13:42:40;8.70;69.30
831;DHT22;397;50.564;7.272;2023-04-03T13:47:48;8.70;70.30
831;DHT22;397;50.564;7.272;2023-04-03T13:50:21;8.80;65.70
831;DHT22;397;50.564;7.272;2023-04-03T13:53:03;8.90;69.50
831;DHT22;397;50.564;7.272;2023-04-03T13:55:33;8.80;69.60
831;DHT22;397;50.564;7.272;2023-04-03T14:03:37;8.60;66.70
831;DHT22;397;50.564;7.272;2023-04-03T14:06:06;8.60;65.40
831;DHT22;397;50.564;7.272;2023-04-03T14:08:34;8.50;65.50
831;DHT22;397;50.564;7.272;2023-04-03T14:11:02;8.50;67.40
831;DHT22;397;50.564;7.272;2023-04-03T14:13:31;8.50;67.00
831;DHT22;397;50.564;7.272;2023-04-03T14:15:58;8.40;66.70
831;DHT22;397;50.564;7.272;2023-04-03T14:18:27;8.40;66.90
831;DHT22;397;50.564;7.272;2023-04-03T14:20:54;8.40;65.30
831;DHT22;397;50.564;7.272;2023-04-03T14:23:22;8.60;63.30
831;DHT22;397;50.564;7.272;2023-04-03T14:25:49;8.60;62.90
831;DHT22;397;50.564;7.272;2023-04-03T14:28:19;8.60;62.70
831;DHT22;397;50.564;7.272;2023-04-03T14:30:49;8.70;64.20
831;DHT22;397;50.564;7.272;2023-04-03T14:33:20;8.70;64.20
831;DHT22;397;50.564;7.272;2023-04-03T14:35:48;8.80;65.00
831;DHT22;397;50.564;7.272;2023-04-03T14:38:24;8.70;62.90
831;DHT22;397;50.564;7.272;2023-04-03T14:40:53;8.70;62.50
831;DHT22;397;50.564;7.272;2023-04-03T14:43:21;8.80;63.30
831;DHT22;397;50.564;7.272;2023-04-03T14:45:49;8.80;61.70
831;DHT22;397;50.564;7.272;2023-04-03T14:48:22;8.80;62.60
831;DHT22;397;50.564;7.272;2023-04-03T14:50:51;8.80;63.00
831;DHT22;397;50.564;7.272;2023-04-03T14:53:19;8.70;63.40
831;DHT22;397;50.564;7.272;2023-04-03T14:55:49;8.60;64.00
831;DHT22;397;50.564;7.272;2023-04-03T14:58:19;8.60;64.70
831;DHT22;397;50.564;7.272;2023-04-03T15:00:47;8.80;65.60
831;DHT22;397;50.564;7.272;2023-04-03T15:03:18;8.90;66.00
831;DHT22;397;50.564;7.272;2023-04-03T15:05:47;9.00;67.60
831;DHT22;397;50.564;7.272;2023-04-03T15:08:23;9.00;66.20
831;DHT22;397;50.564;7.272;2023-04-03T15:10:52;8.80;63.50
831;DHT22;397;50.564;7.272;2023-04-03T15:13:23;8.90;63.90
831;DHT22;397;50.564;7.272;2023-04-03T15:15:51;9.00;64.50
831;DHT22;397;50.564;7.272;2023-04-03T15:18:24;9.00;62.20
831;DHT22;397;50.564;7.272;2023-04-03T15:20:50;8.90;63.10
831;DHT22;397;50.564;7.272;2023-04-03T15:23:18;9.10;63.80
831;DHT22;397;50.564;7.272;2023-04-03T15:25:47;9.10;62.70
831;DHT22;397;50.564;7.272;2023-04-03T15:28:19;9.00;64.60
831;DHT22;397;50.564;7.272;2023-04-03T15:30:47;9.00;63.80
831;DHT22;397;50.564;7.272;2023-04-03T15:33:14;9.00;64.70
831;DHT22;397;50.564;7.272;2023-04-03T15:35:42;9.00;67.70
831;DHT22;397;50.564;7.272;2023-04-03T15:38:09;9.20;67.40
831;DHT22;397;50.564;7.272;2023-04-03T15:40:38;9.10;66.00
831;DHT22;397;50.564;7.272;2023-04-03T15:43:06;9.10;64.70
831;DHT22;397;50.564;7.272;2023-04-03T15:45:35;9.10;63.50
831;DHT22;397;50.564;7.272;2023-04-03T15:48:04;9.10;61.70
831;DHT22;397;50.564;7.272;2023-04-03T15:50:34;9.20;63.90
831;DHT22;397;50.564;7.272;2023-04-03T15:53:02;9.10;61.60
831;DHT22;397;50.564;7.272;2023-04-03T15:55:32;9.00;62.60
831;DHT22;397;50.564;7.272;2023-04-03T15:58:00;9.00;61.10
831;DHT22;397;50.564;7.272;2023-04-03T16:00:30;9.00;60.50
831;DHT22;397;50.564;7.272;2023-04-03T16:03:07;9.00;61.40
831;DHT22;397;50.564;7.272;2023-04-03T16:05:36;9.10;61.00
831;DHT22;397;50.564;7.272;2023-04-03T16:08:05;8.90;60.00
831;DHT22;397;50.564;7.272;2023-04-03T16:10:35;9.00;59.50
831;DHT22;397;50.564;7.272;2023-04-03T16:13:03;9.10;63.70
831;DHT22;397;50.564;7.272;2023-04-03T16:15:32;9.10;60.30
831;DHT22;397;50.564;7.272;2023-04-03T16:18:01;9.00;61.40
831;DHT22;397;50.564;7.272;2023-04-03T16:20:29;9.00;61.60
831;DHT22;397;50.564;7.272;2023-04-03T16:22:58;9.10;59.70
831;DHT22;397;50.564;7.272;2023-04-03T16:25:26;9.10;59.80
831;DHT22;397;50.564;7.272;2023-04-03T16:27:54;9.10;60.00
831;DHT22;397;50.564;7.272;2023-04-03T16:30:22;9.00;60.10
831;DHT22;397;50.564;7.272;2023-04-03T16:32:49;9.00;60.80
831;DHT22;397;50.564;7.272;2023-04-03T16:35:17;9.00;61.20
831;DHT22;397;50.564;7.272;2023-04-03T16:37:44;9.00;60.90
831;DHT22;397;50.564;7.272;2023-04-03T16:40:12;8.90;64.00
831;DHT22;397;50.564;7.272;2023-04-03T16:42:40;8.90;61.40
831;DHT22;397;50.564;7.272;2023-04-03T16:45:08;8.90;64.00
831;DHT22;397;50.564;7.272;2023-04-03T16:47:36;8.90;61.60
831;DHT22;397;50.564;7.272;2023-04-03T16:50:04;8.90;64.10
831;DHT22;397;50.564;7.272;2023-04-03T16:52:31;9.00;64.00
831;DHT22;397;50.564;7.272;2023-04-03T16:54:59;8.90;64.40
831;DHT22;397;50.564;7.272;2023-04-03T16:57:27;8.90;64.00
831;DHT22;397;50.564;7.272;2023-04-03T16:59:54;8.90;63.90
831;DHT22;397;50.564;7.272;2023-04-03T17:02:23;8.90;62.60
831;DHT22;397;50.564;7.272;2023-04-03T17:04:54;8.80;63.40
831;DHT22;397;50.564;7.272;2023-04-03T17:07:23;8.80;61.90
831;DHT22;397;50.564;7.272;2023-04-03T17:09:51;8.70;61.50
831;DHT22;397;50.564;7.272;2023-04-03T17:12:21;8.80;63.20
831;DHT22;397;50.564;7.272;2023-04-03T17:14:48;8.80;61.60
831;DHT22;397;50.564;7.272;2023-04-03T17:17:18;8.70;62.30
831;DHT22;397;50.564;7.272;2023-04-03T17:19:47;8.70;62.60
831;DHT22;397;50.564;7.272;2023-04-03T17:22:14;8.70;62.10
831;DHT22;397;50.564;7.272;2023-04-03T17:24:43;8.60;61.90
831;DHT22;397;50.564;7.272;2023-04-03T17:27:11;8.60;62.20
831;DHT22;397;50.564;7.272;2023-04-03T17:29:39;8.60;63.10
831;DHT22;397;50.564;7.272;2023-04-03T17:32:06;8.50;63.40
831;DHT22;397;50.564;7.272;2023-04-03T17:34:33;8.50;63.20
831;DHT22;397;50.564;7.272;2023-04-03T17:37:02;8.50;63.30
831;DHT22;397;50.564;7.272;2023-04-03T17:39:30;8.50;63.30
831;DHT22;397;50.564;7.272;2023-04-03T17:41:57;8.40;63.10
831;DHT22;397;50.564;7.272;2023-04-03T17:44:26;8.40;62.20
831;DHT22;397;50.564;7.272;2023-04-03T17:46:53;8.30;62.90
831;DHT22;397;50.564;7.272;2023-04-03T17:49:21;8.30;62.20
831;DHT22;397;50.564;7.272;2023-04-03T17:51:49;8.30;64.80
831;DHT22;397;50.564;7.272;2023-04-03T17:54:16;8.20;64.70
831;DHT22;397;50.564;7.272;2023-04-03T17:56:44;8.20;64.50
831;DHT22;397;50.564;7.272;2023-04-03T17:59:14;8.10;64.60
831;DHT22;397;50.564;7.272;2023-04-03T18:01:44;8.10;65.80
831;DHT22;397;50.564;7.272;2023-04-03T18:04:13;8.00;65.80
831;DHT22;397;50.564;7.272;2023-04-03T18:06:47;8.10;66.20
831;DHT22;397;50.564;7.272;2023-04-03T18:09:20;8.00;66.80
831;DHT22;397;50.564;7.272;2023-04-03T18:11:49;8.00;68.60
831;DHT22;397;50.564;7.272;2023-04-03T18:14:20;7.90;66.70
831;DHT22;397;50.564;7.272;2023-04-03T18:16:48;7.90;66.40
831;DHT22;397;50.564;7.272;2023-04-03T18:19:16;7.80;66.10
831;DHT22;397;50.564;7.272;2023-04-03T18:21:43;7.70;66.80
831;DHT22;397;50.564;7.272;2023-04-03T18:24:16;7.70;66.80
831;DHT22;397;50.564;7.272;2023-04-03T18:26:47;7.60;66.70
831;DHT22;397;50.564;7.272;2023-04-03T18:29:15;7.60;68.80
831;DHT22;397;50.564;7.272;2023-04-03T18:31:45;7.70;68.50
831;DHT22;397;50.564;7.272;2023-04-03T18:34:13;7.50;70.00
831;DHT22;397;50.564;7.272;2023-04-03T18:36:41;7.50;70.70
831;DHT22;397;50.564;7.272;2023-04-03T18:39:08;7.40;69.10
831;DHT22;397;50.564;7.272;2023-04-03T18:41:36;7.50;69.00
831;DHT22;397;50.564;7.272;2023-04-03T18:44:06;7.40;69.60
831;DHT22;397;50.564;7.272;2023-04-03T18:46:35;7.40;68.90
831;DHT22;397;50.564;7.272;2023-04-03T18:49:03;7.40;69.60